Impacts METAR Board
IDs:

KELA - Eagle Lake Arpt, TX, US

Updated at: 1300 UTC 20 Oct 2021
Potential Impact None Slight Moderate High
Time 20/01Z 20/02Z 20/03Z 20/04Z 20/05Z 20/06Z 20/07Z 20/08Z 20/09Z 20/10Z 20/11Z 20/12Z 20/13Z
Temp73 71 70 69 67 67 64 64 64 65 65 65 65
Dewpt65 67 67 67 66 65 64 63 64 64 64 64 64
Altim30.02 30.05 30.05 30.06 30.06 30.05 30.06 30.05 30.05 30.04 30.05 30.07 30.07
VIS10 10 10 10 10 10 10 7 5 7 7 10 7
CIG-- 33 -- -- -- -- -- -- -- 47 50 -- --
CoverSCTBKNCLRCLRCLRCLRCLRCLRSCTBKNBKNCLRCLR
FltCatVFRVFRVFRVFRVFRVFRVFRVFRMVFRVFRVFRVFRVFR
WX----------------BR--------
WDir1401401301301101100000035010
WSpd7 5 5 4 4 4 0 0 0 0 0 3 3
WGst-- -- -- -- -- -- -- -- -- -- -- -- --
Raw hourly METARs
KELA 200055Z AUTO 14007KT 10SM SCT045 23/18 A3002 RMK AO2 T02270184
KELA 200155Z AUTO 14005KT 10SM BKN033 22/19 A3005 RMK AO2 T02170192
KELA 200255Z AUTO 13005KT 10SM CLR 21/20 A3005 RMK AO2 T02100195
KELA 200355Z AUTO 13004KT 10SM CLR 21/19 A3006 RMK AO2 T02070194
KELA 200455Z AUTO 11004KT 10SM CLR 20/19 A3006 RMK AO2 T01960187
KELA 200555Z AUTO 11004KT 10SM CLR 19/19 A3005 RMK AO2 LTG DSNT E T01940185 10240 20194 402900148
KELA 200655Z AUTO 00000KT 10SM CLR 18/18 A3006 RMK AO2 T01800175
KELA 200755Z AUTO 00000KT 7SM CLR 18/17 A3005 RMK AO2 T01760170
KELA 200855Z AUTO 00000KT 5SM BR SCT055 18/18 A3005 RMK AO2 T01800175
KELA 200955Z AUTO 00000KT 7SM BKN047 BKN050 18/18 A3004 RMK AO2 T01830178
KELA 201055Z AUTO 00000KT 7SM BKN050 18/18 A3005 RMK AO2 T01840178
KELA 201155Z AUTO 35003KT 10SM CLR 19/18 A3007 RMK AO2 T01850178 10195 20173
KELA 201255Z AUTO 01003KT 7SM CLR 19/18 A3007 RMK AO2 T01860180